Latest Weather Observations for Daly Waters

IDD60801

Issued at 10:01 pm CST Friday 29 May 2015 (issued every 30 minutes, with the page automatically refreshed every 10 minutes)

About weather observations | Map of weather stations | Latest weather observations for NT | Other Formats
Station Details ID: 014626 Name: DALY WATERS AIRSTRIP Lat: -16.26 Lon: 133.38 Height: 209.84 m
Data from the previous 72 hours. | See also: Recent months at Daly Waters
Date/Time
CST
Temp
°C
App
Temp
°C
Dew
Point
Rel
Hum
%
Delta-T
°C
Wind Press
QNH
hPa
Press
MSL
hPa
Rain
since 9 am
mm
Dir
 
Spd
km/h
Gust
km/h
Spd
kts
Gust
kts
29/09:30pm 19.7 20.2 11.7 60 4.5 CALM 0 6 0 3 1015.7 1014.7 0.0
29/09:00pm 19.8 19.5 11.3 58 4.7 NE 4 4 2 2 1015.4 1014.4 0.0
29/08:30pm 20.1 20.4 10.8 55 5.1 CALM 0 0 0 0 1015.4 1014.4 0.0
29/08:00pm 20.7 20.9 10.5 52 5.6 CALM 0 0 0 0 1015.1 1014.1 0.0
29/07:30pm 21.7 21.3 9.9 47 6.4 E 2 4 1 2 1014.6 1013.6 0.0
29/07:00pm 23.3 23.2 9.3 41 7.6 CALM 0 0 0 0 1014.4 1013.4 0.0
29/06:30pm 26.2 25.5 8.7 33 9.6 E 2 2 1 1 1014.1 1013.1 0.0
29/06:00pm 30.8 29.9 9.1 26 12.2 E 4 7 2 4 1013.9 1012.9 0.0
29/05:30pm 32.5 31.1 8.7 23 13.5 E 6 9 3 5 1013.4 1012.5 0.0
29/05:00pm 33.9 32.4 9.2 22 14.2 ENE 7 11 4 6 1013.4 1012.5 0.0
29/04:30pm 34.2 32.2 8.8 21 14.5 E 9 15 5 8 1013.3 1012.4 0.0
29/04:00pm 34.9 32.5 8.6 20 15.0 NE 11 20 6 11 1013.3 1012.4 0.0
29/03:30pm 35.2 32.9 8.9 20 15.1 E 11 20 6 11 1013.3 1012.4 0.0
29/03:00pm 34.9 33.1 9.3 21 14.8 ENE 9 19 5 10 1013.4 1012.5 0.0
29/02:30pm 34.4 32.3 9.6 22 14.3 E 11 19 6 10 1013.7 1012.7 0.0
29/02:00pm 34.1 31.9 10.7 24 13.7 E 13 26 7 14 1014.0 1013.0 0.0
29/01:30pm 33.7 31.6 9.7 23 13.8 E 11 22 6 12 1014.5 1013.5 0.0
29/01:00pm 34.1 31.9 10.7 24 13.7 ENE 13 28 7 15 1014.7 1013.7 0.0
29/12:30pm 33.1 30.4 10.4 25 13.2 ENE 15 26 8 14 1015.3 1014.3 0.0
29/12:00pm 33.2 30.5 11.7 27 12.8 NE 17 24 9 13 1015.6 1014.6 0.0
29/11:30am 32.2 30.9 12.4 30 11.8 ENE 11 19 6 10 1016.0 1015.0 0.0
29/11:00am 31.7 30.2 13.0 32 11.2 NE 13 24 7 13 1016.6 1015.6 0.0
29/10:30am 30.1 28.7 13.4 36 10.0 ENE 13 20 7 11 1017.0 1016.0 0.0
29/10:00am 29.0 28.3 14.4 41 8.9 NE 11 17 6 9 1017.1 1016.1 0.0
29/09:30am 26.7 26.4 14.5 47 7.4 NE 9 15 5 8 1017.4 1016.5 0.0
29/09:00am 24.6 25.1 15.0 55 5.8 E 6 9 3 5 1017.4 1016.5 0.0
29/08:30am 21.9 22.3 13.8 60 4.7 E 4 7 2 4 1017.1 1016.1 0.0
29/08:00am 17.7 18.4 12.2 70 3.1 CALM 0 0 0 0 1016.7 1015.7 0.0
29/07:30am 13.9 14.3 11.4 85 1.3 CALM 0 0 0 0 1016.1 1015.1 0.0
29/07:00am 13.2 13.1 10.7 85 1.3 SSE 2 4 1 2 1015.9 1014.9 0.0
29/06:30am 13.0 12.3 10.2 83 1.5 S 4 6 2 3 1015.9 1014.9 0.0
29/06:00am 13.4 13.2 10.4 82 1.6 SSE 2 2 1 1 1015.9 1014.9 0.0
29/05:30am 13.8 14.1 10.8 82 1.6 CALM 0 0 0 0 1015.7 1014.7 0.0
29/05:00am 13.8 12.9 10.8 82 1.6 SSE 6 6 3 3 1015.6 1014.6 0.0
29/04:30am 13.6 13.0 10.4 81 1.7 S 4 6 2 3 1015.3 1014.3 0.0
29/04:00am 13.8 13.6 10.6 81 1.7 SSW 2 6 1 3 1015.0 1014.0 0.0
29/03:30am 13.9 13.0 10.5 80 1.8 SSW 6 6 3 3 1015.1 1014.1 0.0
29/03:00am 14.3 13.8 10.7 79 1.9 SSW 4 6 2 3 1015.2 1014.2 0.0
29/02:30am 14.6 14.9 10.8 78 2.0 CALM 0 0 0 0 1015.4 1014.4 0.0
29/02:00am 14.9 15.1 10.7 76 2.2 CALM 0 0 0 0 1015.5 1014.5 0.0
29/01:30am 15.3 15.6 10.9 75 2.4 CALM 0 0 0 0 1015.8 1014.8 0.0
29/01:00am 15.8 16.1 10.8 72 2.7 CALM 0 0 0 0 1015.8 1014.8 0.0
29/12:30am 16.5 16.8 10.8 69 3.1 CALM 0 0 0 0 1015.7 1014.7 0.0
29/12:00am 17.9 17.9 12.4 70 3.1 E 4 24 2 13 1015.9 1014.9 0.0
 
Date/Time
CST
Temp
°C
App
Temp
°C
Dew
Point
Rel
Hum
%
Delta-T
°C
Wind Press
QNH
hPa
Press
MSL
hPa
Rain
since 9 am
mm
Dir
 
Spd
km/h
Gust
km/h
Spd
kts
Gust
kts
28/11:30pm 16.5 16.1 11.0 70 3.0 S 4 4 2 2 1015.9 1014.9 0.0
28/11:00pm 17.0 17.4 11.1 68 3.2 CALM 0 0 0 0 1015.9 1014.9 0.0
28/10:30pm 17.4 17.7 11.0 66 3.5 CALM 0 0 0 0 1016.0 1015.0 0.0
28/10:00pm 18.0 18.4 11.1 64 3.8 CALM 0 0 0 0 1016.0 1015.0 0.0
28/09:30pm 18.4 18.8 11.2 63 4.0 CALM 0 0 0 0 1015.9 1014.9 0.0
28/09:00pm 18.8 19.1 10.9 60 4.3 CALM 0 0 0 0 1015.7 1014.7 0.0
28/08:30pm 19.5 19.7 10.5 56 4.9 CALM 0 0 0 0 1015.5 1014.5 0.0
28/08:00pm 20.4 20.6 10.5 53 5.4 CALM 0 0 0 0 1015.2 1014.2 0.0
28/07:30pm 21.4 21.5 10.3 49 6.1 CALM 0 0 0 0 1014.9 1013.9 0.0
28/07:00pm 23.1 23.2 10.2 44 7.1 CALM 0 0 0 0 1014.6 1013.6 0.0
28/06:30pm 24.9 24.8 9.6 38 8.5 CALM 0 4 0 2 1014.3 1013.3 0.0
28/06:00pm 28.2 27.2 9.0 30 10.7 ESE 4 4 2 2 1014.0 1013.0 0.0
28/05:30pm 30.7 29.3 9.0 26 12.2 ESE 6 9 3 5 1013.7 1012.7 0.0
28/05:00pm 32.0 30.6 9.5 25 12.8 E 7 17 4 9 1013.4 1012.5 0.0
28/04:30pm 32.8 30.9 8.9 23 13.6 ESE 9 17 5 9 1013.3 1012.4 0.0
28/04:00pm 33.2 30.8 8.6 22 13.9 E 11 15 6 8 1013.3 1012.4 0.0
28/03:30pm 33.4 31.6 9.4 23 13.8 E 9 19 5 10 1013.4 1012.5 0.0
28/03:00pm 33.6 30.9 9.0 22 14.0 NE 13 22 7 12 1013.7 1012.7 0.0
28/02:30pm 33.9 31.5 9.9 23 13.9 ENE 13 24 7 13 1013.9 1012.9 0.0
28/02:00pm 33.2 30.5 10.5 25 13.2 ENE 15 24 8 13 1014.2 1013.2 0.0
28/01:30pm 33.5 31.5 11.4 26 13.1 ENE 13 20 7 11 1014.5 1013.5 0.0
28/01:00pm 32.8 31.4 10.8 26 12.9 E 9 26 5 14 1015.1 1014.1 0.0
28/12:30pm 31.9 29.0 12.2 30 11.7 NE 19 43 10 23 1015.7 1014.7 0.0
28/12:00pm 31.8 29.5 11.6 29 11.9 ENE 15 24 8 13 1016.1 1015.1 0.0
28/11:30am 30.8 28.5 13.1 34 10.6 NE 17 30 9 16 1016.5 1015.5 0.0
28/11:00am 30.8 28.4 12.7 33 10.8 ENE 17 30 9 16 1016.7 1015.7 0.0
28/10:30am 29.9 28.2 13.6 36 9.8 ENE 15 24 8 13 1016.9 1015.9 0.0
28/10:00am 28.3 28.2 14.9 44 8.2 ENE 9 22 5 12 1017.1 1016.1 0.0
28/09:30am 26.0 27.4 16.5 55 5.9 E 4 7 2 4 1017.2 1016.2 0.0
28/09:00am 23.4 25.2 16.4 64 4.3 SE 2 6 1 3 1017.2 1016.2 0.0
28/08:30am 20.6 22.1 15.6 73 3.0 SSE 2 4 1 2 1016.9 1015.9 0.0
28/08:00am 17.5 18.4 14.0 80 2.0 SSE 2 6 1 3 1016.6 1015.6 0.0
28/07:30am 13.5 13.2 11.4 87 1.1 S 4 6 2 3 1016.3 1015.3 0.0
28/07:00am 12.8 12.1 10.2 84 1.4 S 4 4 2 2 1015.8 1014.8 0.0
28/06:30am 13.0 12.8 10.4 84 1.4 S 2 2 1 1 1015.5 1014.5 0.0
28/06:00am 13.1 12.5 10.3 83 1.5 S 4 4 2 2 1015.4 1014.4 0.0
28/05:30am 13.4 12.8 10.4 82 1.6 S 4 4 2 2 1015.4 1014.4 0.0
28/05:00am 13.6 13.4 10.6 82 1.6 SSE 2 4 1 2 1015.1 1014.1 0.0
28/04:30am 13.8 13.3 10.8 82 1.6 SSE 4 6 2 3 1015.1 1014.1 0.0
28/04:00am 13.7 13.9 10.5 81 1.7 CALM 0 0 0 0 1014.9 1013.9 0.0
28/03:30am 13.8 14.0 10.4 80 1.8 CALM 0 0 0 0 1014.9 1013.9 0.0
28/03:00am 14.0 14.2 10.4 79 1.9 CALM 0 0 0 0 1014.9 1013.9 0.0
28/02:30am 14.3 14.5 10.7 79 1.9 CALM 0 0 0 0 1015.0 1014.0 0.0
28/02:00am 14.6 14.8 10.6 77 2.1 CALM 0 0 0 0 1015.3 1014.3 0.0
28/01:30am 15.1 15.4 10.9 76 2.3 CALM 0 0 0 0 1015.5 1014.5 0.0
28/01:00am 15.4 15.7 11.0 75 2.4 CALM 0 0 0 0 1015.6 1014.6 0.0
28/12:30am 15.7 16.1 11.1 74 2.5 CALM 0 0 0 0 1015.6 1014.6 0.0
28/12:00am 16.0 16.3 11.0 72 2.7 CALM 0 0 0 0 1015.7 1014.7 0.0
 
Date/Time
CST
Temp
°C
App
Temp
°C
Dew
Point
Rel
Hum
%
Delta-T
°C
Wind Press
QNH
hPa
Press
MSL
hPa
Rain
since 9 am
mm
Dir
 
Spd
km/h
Gust
km/h
Spd
kts
Gust
kts
27/11:30pm 16.5 16.8 11.0 70 3.0 CALM 0 0 0 0 1015.6 1014.6 0.0
27/11:00pm 17.1 17.5 11.4 69 3.1 CALM 0 2 0 1 1015.6 1014.6 0.0
27/10:30pm 17.1 17.5 11.2 68 3.2 CALM 0 0 0 0 1015.4 1014.4 0.0
27/10:00pm 17.6 18.0 11.4 67 3.4 CALM 0 0 0 0 1015.2 1014.2 0.0
27/09:30pm 18.1 18.5 11.2 64 3.8 CALM 0 0 0 0 1015.0 1014.0 0.0
27/09:00pm 18.7 19.0 11.0 61 4.2 CALM 0 0 0 0 1014.9 1013.9 0.0
27/08:30pm 19.3 19.5 10.6 57 4.7 CALM 0 0 0 0 1014.8 1013.8 0.0
27/08:00pm 20.4 20.7 10.8 54 5.3 CALM 0 0 0 0 1014.4 1013.4 0.0
27/07:30pm 21.6 21.8 10.4 49 6.2 CALM 0 0 0 0 1014.1 1013.1 0.0
27/07:00pm 23.3 23.3 9.7 42 7.5 CALM 0 0 0 0 1013.8 1012.8 0.0
27/06:30pm 26.5 26.0 9.4 34 9.5 NE 2 4 1 2 1013.6 1012.6 0.0
27/06:00pm 30.5 29.8 9.9 28 11.8 NE 4 7 2 4 1013.1 1012.2 0.0
27/05:30pm 32.4 30.5 9.2 24 13.2 ENE 9 13 5 7 1012.8 1011.8 0.0
27/05:00pm 33.5 31.7 9.5 23 13.8 ENE 9 15 5 8 1012.5 1011.5 0.0
27/04:30pm 34.0 31.9 9.9 23 14.0 E 11 17 6 9 1012.3 1011.3 0.0
27/04:00pm 34.5 32.8 9.7 22 14.4 E 9 20 5 11 1012.3 1011.3 0.0
27/03:30pm 34.6 31.7 9.8 22 14.4 NE 15 24 8 13 1012.4 1011.4 0.0
27/03:00pm 34.3 32.1 9.5 22 14.3 ENE 11 19 6 10 1012.8 1011.8 0.0
27/02:30pm 34.1 32.1 10.0 23 14.0 E 11 20 6 11 1013.2 1012.3 0.0
27/02:00pm 34.5 32.5 11.6 25 13.7 NE 13 26 7 14 1013.6 1012.6 0.0
27/01:30pm 33.5 31.1 11.4 26 13.1 ENE 15 24 8 13 1014.2 1013.2 0.0
27/01:00pm 33.5 31.8 12.5 28 12.6 ENE 13 24 7 13 1015.1 1014.1 0.0
27/12:30pm 32.4 31.1 12.6 30 11.9 ESE 11 20 6 11 1015.7 1014.7 0.0
27/12:00pm 32.4 31.1 12.6 30 11.9 E 11 20 6 11 1016.3 1015.3 0.0
27/11:30am 32.0 30.3 13.7 33 11.1 ENE 15 22 8 12 1016.7 1015.7 0.0
27/11:00am 31.0 29.3 14.6 37 10.1 ENE 17 24 9 13 1017.1 1016.1 0.0
27/10:30am 30.2 29.7 15.9 42 8.9 E 13 20 7 11 1017.5 1016.6 0.0
27/10:00am 29.0 29.4 16.2 46 8.0 E 9 20 5 11 1017.6 1016.7 0.0
27/09:30am 27.6 28.5 16.2 49 7.1 ENE 6 15 3 8 1017.7 1016.8 0.0
27/09:00am 24.6 25.9 16.1 59 5.2 E 4 6 2 3 1017.6 1016.7 0.0
27/08:30am 22.3 23.5 15.9 67 3.9 ESE 4 6 2 3 1017.4 1016.5 0.0
27/08:00am 19.9 20.7 14.9 73 3.0 ESE 4 6 2 3 1017.0 1016.0 0.0
27/07:58am 19.6 20.8 14.8 74 2.8 ESE 2 6 1 3 1017.0 1016.0 0.0
27/07:30am 14.6 14.4 11.9 84 1.5 ENE 4 4 2 2 1016.9 1015.9 0.0
27/07:00am 13.7 13.9 10.7 82 1.6 CALM 0 0 0 0 1016.7 1015.7 0.0
27/06:30am 13.9 14.2 10.9 82 1.6 CALM 0 0 0 0 1016.3 1015.3 0.0
27/06:00am 14.0 13.8 10.6 80 1.8 ENE 2 4 1 2 1016.1 1015.1 0.0
27/05:30am 14.2 14.4 10.6 79 1.9 CALM 0 0 0 0 1016.0 1015.0 0.0
27/05:00am 14.5 14.7 10.7 78 2.0 CALM 0 0 0 0 1016.1 1015.1 0.0
27/04:30am 14.7 14.9 10.7 77 2.1 CALM 0 0 0 0 1016.3 1015.3 0.0
27/04:00am 14.9 15.1 10.7 76 2.2 CALM 0 0 0 0 1016.4 1015.4 0.0
27/03:30am 15.3 15.6 10.9 75 2.4 CALM 0 0 0 0 1016.4 1015.4 0.0
27/03:00am 15.5 15.7 10.7 73 2.6 CALM 0 0 0 0 1016.5 1015.5 0.0
27/02:30am 16.1 16.5 11.1 72 2.7 CALM 0 0 0 0 1016.7 1015.7 0.0
27/02:00am 16.5 16.4 10.8 69 3.1 ENE 2 6 1 3 1017.1 1016.1 0.0
27/01:30am 17.2 17.5 11.0 67 3.4 CALM 0 0 0 0 1017.6 1016.7 0.0
27/01:00am 18.1 18.3 10.7 62 4.0 CALM 0 0 0 0 1017.6 1016.7 0.0
27/12:30am 19.4 19.6 10.4 56 4.9 CALM 0 0 0 0 1017.8 1016.9 0.0
27/12:00am 22.4 22.0 11.2 49 6.3 NE 4 6 2 3 1017.9 1017.0 0.0
 
Date/Time
CST
Temp
°C
App
Temp
°C
Dew
Point
Rel
Hum
%
Delta-T
°C
Wind Press
QNH
hPa
Press
MSL
hPa
Rain
since 9 am
mm
Dir
 
Spd
km/h
Gust
km/h
Spd
kts
Gust
kts
26/11:30pm 23.6 22.5 10.6 44 7.2 E 7 11 4 6 1018.1 1017.2 0.0
26/11:00pm 21.1 20.2 11.2 53 5.5 S 7 11 4 6 1017.5 1016.6 0.0
26/10:30pm 18.3 17.8 10.7 61 4.1 SSE 4 6 2 3 1017.3 1016.4 0.0

Other Formats:

Comma delimited format used in spreadsheet applications
http://www.bom.gov.au/fwo/IDD60801/IDD60801.94234.axf

JavaScript Object Notation format (JSON) in row-major order
http://www.bom.gov.au/fwo/IDD60801/IDD60801.94234.json